Time;durP1;ratioP1;P1;durP2;ratioP2;P2;SDS_P1;SDS_P2;PMS_P1;PMS_P2;Temp;Humidity;BMP_temperature;BMP_pressure;BME280_temperature;BME280_humidity;BME280_pressure;Samples;Min_cycle;Max_cycle;Signal;HPM_P1;HPM_P2
2022/09/17 00:02:06;;;;;;;6.78;1.65;;;;;;;;;;5064733;28;20054;-72
2022/09/17 00:04:33;;;;;;;5.85;1.30;;;;;;;;;;5060764;28;20033;-72
2022/09/17 00:06:59;;;;;;;5.05;1.50;;;;;;;;;;5062572;28;20450;-72
2022/09/17 00:09:25;;;;;;;5.47;1.50;;;;;;;;;;5061750;28;20801;-72
2022/09/17 00:11:51;;;;;;;7.30;1.65;;;;;;;;;;5060397;28;20462;-73
2022/09/17 00:14:17;;;;;;;7.75;1.80;;;;;;;;;;5059733;28;20031;-73
2022/09/17 00:16:45;;;;;;;7.93;1.70;;;;;;;;;;5061800;28;20554;-73
2022/09/17 00:19:19;;;;;;;4.82;1.50;;;;;;;;;;5061695;28;20392;-72
2022/09/17 00:21:46;;;;;;;5.28;1.55;;;;;;;;;;5060453;28;20036;-73
2022/09/17 00:24:13;;;;;;;4.88;1.52;;;;;;;;;;5063936;28;20022;-73
2022/09/17 00:26:39;;;;;;;8.00;1.90;;;;;;;;;;5058532;28;20017;-72
2022/09/17 00:29:06;;;;;;;5.57;1.58;;;;;;;;;;5063019;28;20468;-73
2022/09/17 00:31:32;;;;;;;4.80;1.70;;;;;;;;;;5058226;28;20035;-73
2022/09/17 00:33:59;;;;;;;3.58;1.30;;;;;;;;;;5062448;28;20388;-73
2022/09/17 00:36:25;;;;;;;8.30;1.65;;;;;;;;;;5061753;28;20024;-73
2022/09/17 00:38:58;;;;;;;4.65;1.08;;;;;;;;;;5060620;28;20473;-73
2022/09/17 00:41:26;;;;;;;5.28;1.65;;;;;;;;;;5062265;28;20213;-73
2022/09/17 00:43:54;;;;;;;6.43;1.63;;;;;;;;;;5065769;28;20039;-72
2022/09/17 00:46:23;;;;;;;5.25;1.45;;;;;;;;;;5061688;28;20020;-72
2022/09/17 00:48:49;;;;;;;5.15;1.08;;;;;;;;;;5059569;28;20112;-73
2022/09/17 00:51:17;;;;;;;5.13;1.48;;;;;;;;;;5060663;28;20024;-73
2022/09/17 00:53:43;;;;;;;4.93;1.23;;;;;;;;;;5063323;28;20427;-73
2022/09/17 00:56:14;;;;;;;9.90;1.60;;;;;;;;;;5059796;28;20093;-73
2022/09/17 00:58:40;;;;;;;8.55;1.95;;;;;;;;;;5063280;28;20043;-73
2022/09/17 01:01:06;;;;;;;9.65;1.95;;;;;;;;;;5058983;28;20066;-73
2022/09/17 01:03:33;;;;;;;12.10;2.10;;;;;;;;;;5062208;28;20032;-72
2022/09/17 01:06:08;;;;;;;9.60;2.22;;;;;;;;;;5059404;28;20024;-73
2022/09/17 01:08:40;;;;;;;7.60;2.03;;;;;;;;;;5060948;28;20047;-73
2022/09/17 01:11:09;;;;;;;8.00;2.30;;;;;;;;;;5059160;28;20043;-73
2022/09/17 01:13:35;;;;;;;5.70;1.90;;;;;;;;;;5060000;28;20047;-73
2022/09/17 01:16:16;;;;;;;8.70;2.58;;;;;;;;;;5060047;28;20024;-73
2022/09/17 01:18:48;;;;;;;7.93;2.40;;;;;;;;;;5061176;28;20044;-73
2022/09/17 01:21:20;;;;;;;10.25;2.78;;;;;;;;;;5057555;28;20082;-73
2022/09/17 01:24:05;;;;;;;12.25;2.95;;;;;;;;;;5062105;28;20083;-73
2022/09/17 01:26:49;;;;;;;7.63;2.63;;;;;;;;;;5074287;28;20074;-72
2022/09/17 01:29:15;;;;;;;7.85;2.30;;;;;;;;;;5056912;28;20051;-72
2022/09/17 01:32:02;;;;;;;5.53;2.15;;;;;;;;;;5059055;28;20461;-72
2022/09/17 01:34:28;;;;;;;13.43;3.13;;;;;;;;;;5060055;28;20029;-73
2022/09/17 01:37:03;;;;;;;7.72;2.40;;;;;;;;;;5058246;28;20444;-72
2022/09/17 01:39:44;;;;;;;6.93;2.25;;;;;;;;;;5060407;28;20033;-72
2022/09/17 01:42:23;;;;;;;6.90;2.28;;;;;;;;;;5058428;28;20032;-72
2022/09/17 01:44:55;;;;;;;6.13;2.00;;;;;;;;;;5058001;28;20032;-73
2022/09/17 01:47:40;;;;;;;4.90;1.83;;;;;;;;;;5061655;28;20055;-72
2022/09/17 01:50:12;;;;;;;6.90;2.53;;;;;;;;;;5057021;28;20429;-72
2022/09/17 01:52:40;;;;;;;4.85;1.70;;;;;;;;;;5062012;28;20024;-73
2022/09/17 01:55:09;;;;;;;5.18;1.92;;;;;;;;;;5057352;28;20025;-73
2022/09/17 01:57:41;;;;;;;8.88;1.55;;;;;;;;;;5059019;28;20032;-73
2022/09/17 02:00:13;;;;;;;5.32;1.42;;;;;;;;;;5057322;28;20063;-73
2022/09/17 02:02:55;;;;;;;3.95;1.25;;;;;;;;;;5059102;28;20020;-72
2022/09/17 02:05:27;;;;;;;5.80;1.65;;;;;;;;;;5058913;28;20135;-72
2022/09/17 02:07:56;;;;;;;6.53;1.58;;;;;;;;;;5060002;28;20035;-73
2022/09/17 02:10:26;;;;;;;4.40;1.88;;;;;;;;;;5058889;28;20029;-72
2022/09/17 02:12:57;;;;;;;5.55;1.40;;;;;;;;;;5058907;28;20468;-72
2022/09/17 02:15:26;;;;;;;4.57;1.08;;;;;;;;;;5058266;28;20072;-72
2022/09/17 02:18:07;;;;;;;2.63;1.15;;;;;;;;;;5059413;28;20086;-72
2022/09/17 02:20:33;;;;;;;;;;;;;;;;;;5060965;28;20024;-72
2022/09/17 02:23:02;;;;;;;3.97;0.90;;;;;;;;;;5058748;28;19905;-73
2022/09/17 02:25:33;;;;;;;2.08;1.10;;;;;;;;;;5059251;28;20023;-72
2022/09/17 02:28:02;;;;;;;6.22;1.25;;;;;;;;;;5063596;28;20025;-72
2022/09/17 02:30:28;;;;;;;2.00;0.90;;;;;;;;;;5058090;28;20025;-72
2022/09/17 02:32:55;;;;;;;2.88;0.77;;;;;;;;;;5061313;28;20028;-73
2022/09/17 02:35:22;;;;;;;2.83;1.02;;;;;;;;;;5057954;28;20028;-72
2022/09/17 02:37:48;;;;;;;4.53;1.10;;;;;;;;;;5067142;28;20082;-72
2022/09/17 02:40:16;;;;;;;2.63;1.00;;;;;;;;;;5061367;28;20021;-72
2022/09/17 02:42:46;;;;;;;2.97;0.77;;;;;;;;;;5063610;28;20404;-73
2022/09/17 02:45:12;;;;;;;2.40;0.77;;;;;;;;;;5058716;28;20047;-73
2022/09/17 02:47:56;;;;;;;3.78;1.00;;;;;;;;;;5064213;28;20535;-72
2022/09/17 02:50:35;;;;;;;1.60;0.75;;;;;;;;;;5061722;28;20479;-72
2022/09/17 02:53:39;;;;;;;3.42;0.90;;;;;;;;;;5063940;28;20024;-73
2022/09/17 02:56:24;;;;;;;4.70;0.75;;;;;;;;;;5062933;28;20032;-73
2022/09/17 02:59:17;;;;;;;4.68;0.85;;;;;;;;;;5060695;28;20047;-72
2022/09/17 03:01:55;;;;;;;6.22;0.98;;;;;;;;;;5061254;28;20123;-73
2022/09/17 03:04:23;;;;;;;4.40;1.02;;;;;;;;;;5062052;28;20158;-72
2022/09/17 03:06:52;;;;;;;4.20;1.20;;;;;;;;;;5065005;28;20247;-72
2022/09/17 03:09:18;;;;;;;3.90;1.08;;;;;;;;;;5061108;28;20024;-73
2022/09/17 03:11:44;;;;;;;4.82;0.90;;;;;;;;;;5064773;28;20027;-73
2022/09/17 03:14:10;;;;;;;6.07;1.23;;;;;;;;;;5061147;28;20021;-73
2022/09/17 03:16:36;;;;;;;5.95;1.65;;;;;;;;;;5061590;28;20401;-73
2022/09/17 03:19:03;;;;;;;3.97;1.45;;;;;;;;;;5053756;28;20032;-73
2022/09/17 03:21:30;;;;;;;5.80;1.35;;;;;;;;;;5056526;28;20372;-72
2022/09/17 03:23:59;;;;;;;3.83;1.02;;;;;;;;;;5057789;28;20236;-72
2022/09/17 03:26:25;;;;;;;7.75;1.80;;;;;;;;;;5056292;28;20020;-73
2022/09/17 03:28:51;;;;;;;8.50;1.95;;;;;;;;;;5056003;28;20028;-73
2022/09/17 03:31:17;;;;;;;6.28;1.98;;;;;;;;;;5058022;28;20024;-73
2022/09/17 03:33:43;;;;;;;6.05;2.15;;;;;;;;;;5056213;28;20029;-73
2022/09/17 03:36:10;;;;;;;7.90;1.83;;;;;;;;;;5059397;28;20016;-72
2022/09/17 03:38:37;;;;;;;7.22;2.00;;;;;;;;;;5054792;28;20037;-72
2022/09/17 03:41:06;;;;;;;9.95;2.42;;;;;;;;;;5062044;28;20016;-73
2022/09/17 03:43:32;;;;;;;7.72;2.13;;;;;;;;;;5056191;28;20025;-73
2022/09/17 03:45:59;;;;;;;9.35;2.60;;;;;;;;;;5058263;28;20016;-73
2022/09/17 03:48:25;;;;;;;14.65;2.88;;;;;;;;;;5055134;28;20119;-73
2022/09/17 03:50:51;;;;;;;8.45;2.33;;;;;;;;;;5056878;28;20448;-73
2022/09/17 03:53:18;;;;;;;11.80;2.60;;;;;;;;;;5058452;28;20020;-72
2022/09/17 03:55:44;;;;;;;13.85;3.38;;;;;;;;;;5055514;28;20095;-72
2022/09/17 03:58:10;;;;;;;10.50;3.00;;;;;;;;;;5058468;28;20179;-73
2022/09/17 04:00:36;;;;;;;11.50;2.88;;;;;;;;;;5055990;28;20414;-73
2022/09/17 04:03:05;;;;;;;15.30;2.95;;;;;;;;;;5057830;28;20027;-73
2022/09/17 04:05:32;;;;;;;10.00;2.40;;;;;;;;;;5055299;28;20032;-72
2022/09/17 04:07:58;;;;;;;9.15;2.60;;;;;;;;;;5054291;28;20075;-73
2022/09/17 04:10:25;;;;;;;12.57;3.00;;;;;;;;;;5056379;28;20017;-72
2022/09/17 04:12:51;;;;;;;7.30;2.30;;;;;;;;;;5055465;28;20023;-73
2022/09/17 04:15:17;;;;;;;13.98;2.75;;;;;;;;;;5056521;28;20032;-72
2022/09/17 04:17:43;;;;;;;12.02;2.70;;;;;;;;;;5057943;28;20020;-73
2022/09/17 04:20:09;;;;;;;10.43;2.75;;;;;;;;;;5055830;28;20461;-73
2022/09/17 04:22:35;;;;;;;10.48;2.88;;;;;;;;;;5057686;28;20031;-72
2022/09/17 04:25:02;;;;;;;8.15;2.20;;;;;;;;;;5054223;28;20055;-73
2022/09/17 04:27:28;;;;;;;7.53;1.83;;;;;;;;;;5061303;28;20073;-72
2022/09/17 04:29:54;;;;;;;10.82;2.22;;;;;;;;;;5055392;28;20024;-73
2022/09/17 04:32:20;;;;;;;8.82;2.28;;;;;;;;;;5057154;28;20029;-73
2022/09/17 04:34:46;;;;;;;12.43;3.05;;;;;;;;;;5055186;28;20376;-73
2022/09/17 04:37:12;;;;;;;9.00;2.42;;;;;;;;;;5057728;28;20024;-73
2022/09/17 04:39:39;;;;;;;9.45;2.67;;;;;;;;;;5054352;28;20041;-73
2022/09/17 04:42:05;;;;;;;11.48;3.00;;;;;;;;;;5056549;28;20431;-72
2022/09/17 04:44:31;;;;;;;8.13;2.10;;;;;;;;;;5055925;28;20025;-72
2022/09/17 04:46:57;;;;;;;10.05;2.03;;;;;;;;;;5056363;28;20038;-73
2022/09/17 04:49:23;;;;;;;7.32;1.90;;;;;;;;;;5053929;28;20044;-73
2022/09/17 04:51:49;;;;;;;6.15;1.65;;;;;;;;;;5056126;28;20024;-72
2022/09/17 04:54:16;;;;;;;10.40;2.28;;;;;;;;;;5056230;28;20024;-72
2022/09/17 04:56:42;;;;;;;6.78;1.50;;;;;;;;;;5054046;28;20522;-72
2022/09/17 04:59:08;;;;;;;8.07;1.92;;;;;;;;;;5054267;28;20511;-73
2022/09/17 05:01:34;;;;;;;6.35;1.92;;;;;;;;;;5060230;28;20020;-72
2022/09/17 05:04:00;;;;;;;9.95;1.77;;;;;;;;;;5055706;28;20564;-72
2022/09/17 05:06:26;;;;;;;5.78;1.58;;;;;;;;;;5056886;28;20047;-72
2022/09/17 05:08:53;;;;;;;4.63;1.77;;;;;;;;;;5057624;28;20024;-72
2022/09/17 05:11:19;;;;;;;4.82;2.10;;;;;;;;;;5055125;28;20491;-72
2022/09/17 05:13:45;;;;;;;6.38;1.33;;;;;;;;;;5052679;28;20404;-72
2022/09/17 05:16:11;;;;;;;6.47;1.35;;;;;;;;;;5054389;28;20418;-72
2022/09/17 05:18:37;;;;;;;7.30;1.73;;;;;;;;;;5056686;28;20212;-72
2022/09/17 05:21:04;;;;;;;4.43;1.42;;;;;;;;;;5053864;28;20021;-72
2022/09/17 05:23:30;;;;;;;9.77;2.17;;;;;;;;;;5054882;28;20019;-73
2022/09/17 05:25:59;;;;;;;5.40;1.83;;;;;;;;;;5055538;28;20266;-72
2022/09/17 05:28:26;;;;;;;8.18;1.67;;;;;;;;;;5055345;28;20471;-74
2022/09/17 05:30:52;;;;;;;7.95;2.03;;;;;;;;;;5056454;28;20078;-75
2022/09/17 05:33:19;;;;;;;8.27;2.08;;;;;;;;;;5056731;28;20048;-74
2022/09/17 05:35:45;;;;;;;5.85;1.67;;;;;;;;;;5053773;28;20045;-74
2022/09/17 05:38:12;;;;;;;6.65;1.58;;;;;;;;;;5053318;28;20033;-74
2022/09/17 05:40:38;;;;;;;5.65;1.70;;;;;;;;;;5053570;28;20017;-74
2022/09/17 05:43:05;;;;;;;7.75;1.83;;;;;;;;;;5054321;28;20681;-74
2022/09/17 05:45:35;;;;;;;7.05;1.85;;;;;;;;;;5055589;28;20503;-74
2022/09/17 05:48:01;;;;;;;8.23;2.20;;;;;;;;;;5054639;28;20018;-74
2022/09/17 05:50:28;;;;;;;11.70;2.00;;;;;;;;;;5056013;28;20044;-73
2022/09/17 05:52:54;;;;;;;78.25;8.95;;;;;;;;;;5054604;28;20025;-74
2022/09/17 05:55:22;;;;;;;9.40;2.28;;;;;;;;;;5054515;28;20043;-74
2022/09/17 05:57:48;;;;;;;8.10;2.22;;;;;;;;;;5054977;28;20028;-74
2022/09/17 06:00:15;;;;;;;11.05;1.98;;;;;;;;;;5054365;28;20413;-74
2022/09/17 06:02:41;;;;;;;6.90;2.25;;;;;;;;;;5054811;28;20021;-74
2022/09/17 06:05:07;;;;;;;9.38;2.20;;;;;;;;;;5053050;28;20029;-74
2022/09/17 06:07:37;;;;;;;9.73;2.35;;;;;;;;;;5055624;28;20032;-75
2022/09/17 06:10:05;;;;;;;8.55;2.38;;;;;;;;;;5053013;28;20020;-74
2022/09/17 06:12:34;;;;;;;11.93;2.60;;;;;;;;;;5050724;28;20017;-74
2022/09/17 06:15:00;;;;;;;6.82;2.03;;;;;;;;;;5058033;28;20083;-74
2022/09/17 06:17:26;;;;;;;9.30;2.97;;;;;;;;;;5052675;28;20028;-75
2022/09/17 06:19:53;;;;;;;11.38;2.63;;;;;;;;;;5054599;28;20027;-76
2022/09/17 06:22:19;;;;;;;11.75;2.15;;;;;;;;;;5057642;28;20457;-76
2022/09/17 06:24:45;;;;;;;10.02;2.50;;;;;;;;;;5053296;28;20033;-76
2022/09/17 06:27:11;;;;;;;10.55;2.42;;;;;;;;;;5052215;28;20170;-76
2022/09/17 06:29:38;;;;;;;9.65;2.55;;;;;;;;;;5053119;28;20036;-76
2022/09/17 06:32:04;;;;;;;7.93;2.20;;;;;;;;;;5056958;28;20024;-76
2022/09/17 06:34:30;;;;;;;12.32;3.20;;;;;;;;;;5055467;28;20103;-76
2022/09/17 06:36:56;;;;;;;11.45;2.65;;;;;;;;;;5054698;28;20036;-76
2022/09/17 06:39:23;;;;;;;7.82;2.42;;;;;;;;;;5056566;28;20032;-76
2022/09/17 06:41:49;;;;;;;9.43;2.65;;;;;;;;;;5052437;28;20021;-76
2022/09/17 06:44:15;;;;;;;9.25;2.50;;;;;;;;;;5056604;28;20028;-76
2022/09/17 06:46:51;;;;;;;11.88;2.70;;;;;;;;;;5051354;28;20023;-75
2022/09/17 06:49:18;;;;;;;9.25;2.22;;;;;;;;;;5055925;28;20488;-76
2022/09/17 06:51:44;;;;;;;10.00;1.92;;;;;;;;;;5053290;28;20021;-76
2022/09/17 06:54:11;;;;;;;7.88;2.35;;;;;;;;;;5055497;28;20664;-76
2022/09/17 06:56:37;;;;;;;9.85;2.78;;;;;;;;;;5054437;28;20108;-76
2022/09/17 06:59:03;;;;;;;12.88;2.47;;;;;;;;;;5054567;28;20468;-76
2022/09/17 07:01:29;;;;;;;8.00;2.40;;;;;;;;;;5056363;28;20020;-76
2022/09/17 07:03:56;;;;;;;10.68;3.05;;;;;;;;;;5053198;28;20033;-76
2022/09/17 07:06:22;;;;;;;12.80;2.92;;;;;;;;;;5056200;28;20127;-77
2022/09/17 07:08:48;;;;;;;12.25;2.78;;;;;;;;;;5052693;28;20033;-76
2022/09/17 07:11:17;;;;;;;13.20;2.72;;;;;;;;;;5059210;28;20028;-75
2022/09/17 07:13:43;;;;;;;11.40;2.50;;;;;;;;;;5053393;28;20461;-76
2022/09/17 07:16:09;;;;;;;11.20;3.55;;;;;;;;;;5054452;28;20546;-76
2022/09/17 07:18:36;;;;;;;10.65;2.67;;;;;;;;;;5056277;28;20491;-76
2022/09/17 07:21:04;;;;;;;11.32;2.97;;;;;;;;;;5051310;28;20025;-77
2022/09/17 07:23:34;;;;;;;5.90;2.33;;;;;;;;;;5057233;28;20036;-77
2022/09/17 07:26:01;;;;;;;13.25;3.13;;;;;;;;;;5058205;28;20025;-77
2022/09/17 07:28:27;;;;;;;14.48;2.90;;;;;;;;;;5057586;28;20037;-77
2022/09/17 07:30:54;;;;;;;10.63;2.80;;;;;;;;;;5058596;28;20050;-77
2022/09/17 07:33:24;;;;;;;13.90;3.17;;;;;;;;;;5055894;28;20025;-77
2022/09/17 07:35:55;;;;;;;6.80;2.22;;;;;;;;;;5058508;28;20012;-77
2022/09/17 07:38:21;;;;;;;13.18;2.83;;;;;;;;;;5054451;28;20022;-77
2022/09/17 07:41:00;;;;;;;10.85;2.90;;;;;;;;;;5058540;28;20130;-76
2022/09/17 07:43:27;;;;;;;11.75;3.28;;;;;;;;;;5054597;28;20033;-77
2022/09/17 07:45:53;;;;;;;14.65;3.30;;;;;;;;;;5057014;28;20025;-77
2022/09/17 07:48:20;;;;;;;17.33;3.53;;;;;;;;;;5052983;28;20029;-77
2022/09/17 07:50:47;;;;;;;10.88;3.28;;;;;;;;;;5056626;28;20505;-77
2022/09/17 07:53:13;;;;;;;14.70;3.67;;;;;;;;;;5059543;28;20020;-77
2022/09/17 07:55:39;;;;;;;10.13;3.08;;;;;;;;;;5055043;28;20024;-77
2022/09/17 07:58:05;;;;;;;11.88;3.50;;;;;;;;;;5058424;28;20055;-77
2022/09/17 08:00:32;;;;;;;10.60;3.20;;;;;;;;;;5056206;28;20023;-77
2022/09/17 08:02:58;;;;;;;12.50;3.78;;;;;;;;;;5056898;28;20020;-77
2022/09/17 08:05:24;;;;;;;14.88;3.22;;;;;;;;;;5055721;28;20029;-77
2022/09/17 08:07:51;;;;;;;12.60;3.40;;;;;;;;;;5055555;28;20398;-77
2022/09/17 08:10:21;;;;;;;15.85;3.33;;;;;;;;;;5061481;28;20476;-77
2022/09/17 08:12:48;;;;;;;13.63;2.90;;;;;;;;;;5055613;28;20353;-77
2022/09/17 08:15:15;;;;;;;11.82;2.92;;;;;;;;;;5058544;28;20420;-77
2022/09/17 08:17:47;;;;;;;9.10;3.20;;;;;;;;;;5055140;28;20112;-77
2022/09/17 08:20:14;;;;;;;10.00;3.40;;;;;;;;;;5055778;28;20039;-77
2022/09/17 08:22:41;;;;;;;14.02;3.70;;;;;;;;;;5059232;28;20304;-77
2022/09/17 08:25:08;;;;;;;11.98;3.22;;;;;;;;;;5054078;28;20064;-77
2022/09/17 08:27:35;;;;;;;10.95;3.17;;;;;;;;;;5056661;28;20044;-77
2022/09/17 08:30:01;;;;;;;18.10;3.10;;;;;;;;;;5055306;28;20190;-77
2022/09/17 08:32:29;;;;;;;13.80;3.58;;;;;;;;;;5056236;28;20150;-77
2022/09/17 08:34:56;;;;;;;13.75;3.40;;;;;;;;;;5054279;28;20028;-77
2022/09/17 08:37:22;;;;;;;16.25;3.15;;;;;;;;;;5054922;28;20337;-77
2022/09/17 08:39:48;;;;;;;11.57;3.22;;;;;;;;;;5057252;28;20036;-77
2022/09/17 08:42:17;;;;;;;15.05;3.10;;;;;;;;;;5055022;28;20056;-78
2022/09/17 08:44:46;;;;;;;15.68;3.42;;;;;;;;;;5057730;28;20025;-77
2022/09/17 08:47:17;;;;;;;11.52;3.20;;;;;;;;;;5053945;28;20085;-77
2022/09/17 08:49:43;;;;;;;;;;;;;;;;;;5057189;28;20045;-76
2022/09/17 08:52:09;;;;;;;18.08;4.13;;;;;;;;;;5054050;28;19909;-77
2022/09/17 08:54:53;;;;;;;11.93;3.33;;;;;;;;;;5055710;28;20438;-78
2022/09/17 08:57:38;;;;;;;12.55;3.40;;;;;;;;;;5055856;28;20025;-78
2022/09/17 09:00:09;;;;;;;14.02;3.25;;;;;;;;;;5054305;28;20492;-78
2022/09/17 09:02:38;;;;;;;14.18;3.17;;;;;;;;;;5056711;28;20110;-78
2022/09/17 09:05:12;;;;;;;12.52;3.40;;;;;;;;;;5054388;28;20020;-78
2022/09/17 09:07:42;;;;;;;13.90;3.67;;;;;;;;;;5056130;28;20055;-77
2022/09/17 09:10:11;;;;;;;11.80;3.33;;;;;;;;;;5056136;28;20381;-77
2022/09/17 09:12:38;;;;;;;10.65;2.75;;;;;;;;;;5055346;28;20028;-77
2022/09/17 09:15:04;;;;;;;8.57;3.08;;;;;;;;;;5056810;28;20036;-77
2022/09/17 09:17:45;;;;;;;9.70;2.97;;;;;;;;;;5069969;28;20031;-77
2022/09/17 09:20:31;;;;;;;10.73;3.20;;;;;;;;;;5060346;28;20035;-79
2022/09/17 09:23:00;;;;;;;7.60;2.80;;;;;;;;;;5060993;28;20327;-76
2022/09/17 09:25:28;;;;;;;8.93;2.60;;;;;;;;;;5066096;28;20504;-77
2022/09/17 09:28:07;;;;;;;10.25;3.55;;;;;;;;;;5057995;28;20016;-77
2022/09/17 09:30:46;;;;;;;9.98;3.13;;;;;;;;;;5056491;28;20078;-77
2022/09/17 09:33:17;;;;;;;8.57;3.08;;;;;;;;;;5054615;28;20445;-76
2022/09/17 09:35:44;;;;;;;5.82;2.90;;;;;;;;;;5055973;28;20032;-78
2022/09/17 09:38:18;;;;;;;6.65;2.85;;;;;;;;;;5057594;28;20094;-77
2022/09/17 09:40:48;;;;;;;9.73;2.90;;;;;;;;;;5055049;28;20105;-76
2022/09/17 09:43:20;;;;;;;5.40;2.42;;;;;;;;;;5057965;28;20028;-74
2022/09/17 09:45:55;;;;;;;8.68;2.60;;;;;;;;;;5054278;28;20078;-77
2022/09/17 09:48:30;;;;;;;6.03;2.88;;;;;;;;;;5051672;28;20406;-77
2022/09/17 09:51:06;;;;;;;9.02;3.17;;;;;;;;;;5054199;28;20068;-76
2022/09/17 09:53:50;;;;;;;6.75;2.55;;;;;;;;;;5060026;28;20024;-77
2022/09/17 09:56:16;;;;;;;13.50;3.30;;;;;;;;;;5057623;28;20232;-77
2022/09/17 09:58:43;;;;;;;9.55;2.92;;;;;;;;;;5057717;28;20396;-75
2022/09/17 10:01:22;;;;;;;6.15;2.95;;;;;;;;;;5055729;28;20029;-77
2022/09/17 10:03:50;;;;;;;7.60;2.85;;;;;;;;;;5054928;28;20025;-77
2022/09/17 10:06:18;;;;;;;11.05;3.00;;;;;;;;;;5056300;28;20027;-76
2022/09/17 10:08:50;;;;;;;9.40;3.63;;;;;;;;;;5058831;28;20379;-77
2022/09/17 10:11:20;;;;;;;5.43;2.85;;;;;;;;;;5056169;28;20024;-76
2022/09/17 10:13:47;;;;;;;12.80;2.97;;;;;;;;;;5057370;28;20027;-77
2022/09/17 10:16:19;;;;;;;4.53;2.40;;;;;;;;;;5055785;28;20017;-76
2022/09/17 10:18:46;;;;;;;9.68;2.60;;;;;;;;;;5057724;28;20496;-77
2022/09/17 10:21:20;;;;;;;6.18;2.15;;;;;;;;;;5051057;28;20033;-77
2022/09/17 10:23:46;;;;;;;4.43;2.13;;;;;;;;;;5055291;28;20535;-77
2022/09/17 10:26:23;;;;;;;8.10;2.80;;;;;;;;;;5053272;28;20078;-77
2022/09/17 10:28:51;;;;;;;8.10;2.50;;;;;;;;;;5055090;28;20083;-77
2022/09/17 10:31:17;;;;;;;6.75;2.20;;;;;;;;;;5057925;28;20064;-77
2022/09/17 10:33:52;;;;;;;8.57;4.07;;;;;;;;;;5053935;28;20012;-77
2022/09/17 10:36:35;;;;;;;5.55;2.83;;;;;;;;;;5057052;28;20031;-76
2022/09/17 10:39:18;;;;;;;6.47;3.33;;;;;;;;;;5055191;28;20029;-76
2022/09/17 10:42:00;;;;;;;5.07;2.10;;;;;;;;;;5053147;28;20040;-78
2022/09/17 10:44:33;;;;;;;5.05;2.67;;;;;;;;;;5055473;28;20103;-78
2022/09/17 10:47:12;;;;;;;4.55;2.67;;;;;;;;;;5068821;28;20082;-77
2022/09/17 10:49:41;;;;;;;5.13;2.10;;;;;;;;;;5052732;28;20105;-77
2022/09/17 10:52:10;;;;;;;4.05;2.30;;;;;;;;;;5053366;28;20191;-77
2022/09/17 10:54:39;;;;;;;4.18;2.80;;;;;;;;;;5056881;28;20021;-77
2022/09/17 10:57:06;;;;;;;6.63;2.60;;;;;;;;;;5052949;28;20636;-76
2022/09/17 11:00:03;;;;;;;4.53;2.38;;;;;;;;;;5059874;28;20041;-76
2022/09/17 11:02:38;;;;;;;7.72;2.45;;;;;;;;;;5062054;28;20040;-77
2022/09/17 11:05:20;;;;;;;5.35;2.42;;;;;;;;;;5056106;28;20087;-77
2022/09/17 11:07:46;;;;;;;;;;;;;;;;;;5057740;28;20085;-76
2022/09/17 11:10:14;;;;;;;5.45;2.05;;;;;;;;;;5060641;28;20353;-76
2022/09/17 11:12:51;;;;;;;6.28;2.80;;;;;;;;;;5062027;28;20047;-75
2022/09/17 11:15:26;;;;;;;5.25;2.80;;;;;;;;;;5058598;28;20025;-77
2022/09/17 11:17:59;;;;;;;5.97;2.40;;;;;;;;;;5058817;28;20036;-76
2022/09/17 11:20:44;;;;;;;4.72;2.22;;;;;;;;;;5057050;28;20119;-77
2022/09/17 11:23:22;;;;;;;4.70;2.95;;;;;;;;;;5056401;28;20052;-77
2022/09/17 11:25:59;;;;;;;6.65;3.13;;;;;;;;;;5060099;28;20048;-76
2022/09/17 11:28:35;;;;;;;8.07;4.70;;;;;;;;;;5057749;28;20096;-75
2022/09/17 11:31:04;;;;;;;6.38;3.42;;;;;;;;;;5052380;28;20552;-75
2022/09/17 11:33:42;;;;;;;10.57;5.45;;;;;;;;;;5055400;28;20099;-76
2022/09/17 11:36:15;;;;;;;7.72;2.80;;;;;;;;;;5057517;28;20485;-76
2022/09/17 11:38:44;;;;;;;5.20;2.60;;;;;;;;;;5059779;28;20041;-76
2022/09/17 11:41:14;;;;;;;7.03;2.55;;;;;;;;;;5058177;28;20028;-75
2022/09/17 11:43:44;;;;;;;10.07;2.75;;;;;;;;;;5056928;28;20423;-76
2022/09/17 11:46:20;;;;;;;9.18;3.42;;;;;;;;;;5059858;28;20027;-76
2022/09/17 11:49:02;;;;;;;6.38;2.78;;;;;;;;;;5056483;28;20056;-75
2022/09/17 11:51:28;;;;;;;;;;;;;;;;;;5058126;28;20503;-76
2022/09/17 11:53:59;;;;;;;8.13;3.30;;;;;;;;;;5056380;28;20550;-76
2022/09/17 11:56:51;;;;;;;5.82;2.30;;;;;;;;;;5060052;28;20384;-76
2022/09/17 11:59:33;;;;;;;9.32;3.10;;;;;;;;;;5057269;28;20405;-76
2022/09/17 12:02:02;;;;;;;9.48;3.10;;;;;;;;;;5058157;28;20025;-76
2022/09/17 12:04:39;;;;;;;6.05;3.17;;;;;;;;;;5055797;28;20024;-75
2022/09/17 12:07:20;;;;;;;7.80;3.03;;;;;;;;;;5055782;28;20264;-77
2022/09/17 12:09:51;;;;;;;8.45;3.08;;;;;;;;;;5057841;28;20021;-77
2022/09/17 12:12:18;;;;;;;6.72;3.78;;;;;;;;;;5060317;28;20025;-77
2022/09/17 12:14:54;;;;;;;7.38;3.20;;;;;;;;;;5061503;28;20024;-78
2022/09/17 12:17:22;;;;;;;5.60;3.20;;;;;;;;;;5058211;28;20025;-77
2022/09/17 12:19:54;;;;;;;6.97;4.20;;;;;;;;;;5056076;28;20071;-78
2022/09/17 12:22:22;;;;;;;12.07;4.95;;;;;;;;;;5058637;28;20047;-77
2022/09/17 12:24:52;;;;;;;9.38;3.35;;;;;;;;;;5060868;28;20037;-77
2022/09/17 12:27:24;;;;;;;8.82;3.10;;;;;;;;;;5058668;28;20035;-77
2022/09/17 12:30:08;;;;;;;6.63;2.90;;;;;;;;;;5054492;28;20036;-77
2022/09/17 12:32:53;;;;;;;9.95;3.35;;;;;;;;;;5074199;28;20035;-78
2022/09/17 12:35:19;;;;;;;8.05;3.47;;;;;;;;;;5054690;28;20117;-78
2022/09/17 12:37:58;;;;;;;6.03;3.58;;;;;;;;;;5058840;28;20028;-78
2022/09/17 12:40:30;;;;;;;7.30;3.00;;;;;;;;;;5054499;28;20025;-78
2022/09/17 12:43:04;;;;;;;10.57;3.95;;;;;;;;;;5057480;28;20758;-78
2022/09/17 12:45:49;;;;;;;7.60;3.60;;;;;;;;;;5054191;28;20628;-77
2022/09/17 12:48:22;;;;;;;7.97;3.00;;;;;;;;;;5054042;28;20499;-78
2022/09/17 12:50:56;;;;;;;6.55;2.97;;;;;;;;;;5058152;28;20067;-77
2022/09/17 12:53:33;;;;;;;13.02;3.75;;;;;;;;;;5054198;28;20086;-77
2022/09/17 12:56:05;;;;;;;6.90;3.08;;;;;;;;;;5055706;28;20024;-78
2022/09/17 12:58:35;;;;;;;8.50;3.65;;;;;;;;;;5053253;28;20031;-78
2022/09/17 13:01:01;;;;;;;7.00;3.40;;;;;;;;;;5055607;28;20115;-78
2022/09/17 13:03:31;;;;;;;5.97;3.03;;;;;;;;;;5053318;28;20579;-78
2022/09/17 13:06:24;;;;;;;7.00;3.60;;;;;;;;;;5056370;28;20029;-77
2022/09/17 13:08:56;;;;;;;9.35;3.30;;;;;;;;;;5052035;28;20543;-78
2022/09/17 13:11:22;;;;;;;10.02;3.47;;;;;;;;;;5056039;28;20062;-77
2022/09/17 13:13:49;;;;;;;7.82;3.38;;;;;;;;;;5054314;28;20025;-78
2022/09/17 13:16:44;;;;;;;6.10;3.17;;;;;;;;;;5055001;28;20020;-78
2022/09/17 13:19:13;;;;;;;7.70;3.50;;;;;;;;;;5058108;28;20040;-77
2022/09/17 13:21:44;;;;;;;8.05;3.20;;;;;;;;;;5052964;28;20523;-78
2022/09/17 13:24:21;;;;;;;11.55;3.95;;;;;;;;;;5056098;28;20078;-78
2022/09/17 13:26:48;;;;;;;7.22;3.42;;;;;;;;;;5054086;28;20528;-78
2022/09/17 13:29:34;;;;;;;7.97;3.60;;;;;;;;;;5056926;28;20032;-77
2022/09/17 13:32:00;;;;;;;7.45;3.10;;;;;;;;;;5053632;28;20035;-78
2022/09/17 13:34:28;;;;;;;11.02;3.75;;;;;;;;;;5053623;28;20067;-78
2022/09/17 13:36:56;;;;;;;7.55;3.22;;;;;;;;;;5054894;28;20029;-78
2022/09/17 13:39:40;;;;;;;10.65;3.40;;;;;;;;;;5060369;28;20716;-78
2022/09/17 13:42:09;;;;;;;7.93;2.97;;;;;;;;;;5055807;28;20056;-78
2022/09/17 13:44:37;;;;;;;6.65;2.85;;;;;;;;;;5053256;28;20051;-77
2022/09/17 13:47:11;;;;;;;7.65;2.63;;;;;;;;;;5054396;28;20025;-78
2022/09/17 13:49:43;;;;;;;10.30;3.08;;;;;;;;;;5056579;28;20040;-78
2022/09/17 13:52:09;;;;;;;4.80;2.70;;;;;;;;;;5054635;28;20421;-78
2022/09/17 13:54:39;;;;;;;5.07;2.50;;;;;;;;;;5056875;28;20033;-78
2022/09/17 13:57:09;;;;;;;7.70;3.00;;;;;;;;;;5052533;28;20075;-78
2022/09/17 13:59:36;;;;;;;4.97;2.60;;;;;;;;;;5056368;28;20044;-77
2022/09/17 14:02:17;;;;;;;5.47;2.53;;;;;;;;;;5054245;28;20146;-78
2022/09/17 14:04:45;;;;;;;;;;;;;;;;;;5047971;28;20025;-79
2022/09/17 14:07:22;;;;;;;6.95;2.90;;;;;;;;;;5050522;28;19988;-77
2022/09/17 14:09:53;;;;;;;8.35;2.42;;;;;;;;;;5047031;28;20017;-78
2022/09/17 14:12:39;;;;;;;4.45;2.40;;;;;;;;;;5042952;28;20029;-78
2022/09/17 14:15:25;;;;;;;8.20;2.35;;;;;;;;;;5048256;28;20107;-77
2022/09/17 14:17:52;;;;;;;4.97;2.70;;;;;;;;;;5053865;28;20128;-78
2022/09/17 14:20:22;;;;;;;4.25;2.30;;;;;;;;;;5053903;28;20279;-78
2022/09/17 14:22:58;;;;;;;4.75;2.38;;;;;;;;;;5057217;28;20500;-77
2022/09/17 14:25:40;;;;;;;6.75;2.25;;;;;;;;;;5052383;28;20518;-78
2022/09/17 14:28:35;;;;;;;4.28;2.00;;;;;;;;;;5050365;28;20036;-76
2022/09/17 14:31:02;;;;;;;4.43;2.25;;;;;;;;;;5037628;28;20131;-77
2022/09/17 14:33:30;;;;;;;4.32;2.60;;;;;;;;;;5056646;28;20061;-78
2022/09/17 14:36:17;;;;;;;5.43;2.33;;;;;;;;;;5059589;28;20514;-77
2022/09/17 14:38:52;;;;;;;3.50;2.00;;;;;;;;;;5059224;28;20032;-76
2022/09/17 14:41:24;;;;;;;4.10;2.00;;;;;;;;;;5057589;28;20078;-77
2022/09/17 14:43:50;;;;;;;4.63;2.28;;;;;;;;;;5058025;28;20101;-76
2022/09/17 14:46:19;;;;;;;3.97;2.08;;;;;;;;;;5061466;28;20090;-77
2022/09/17 14:48:45;;;;;;;9.43;2.65;;;;;;;;;;5057198;28;20064;-76
2022/09/17 14:51:18;;;;;;;4.28;2.30;;;;;;;;;;5061384;28;20040;-76
2022/09/17 14:53:44;;;;;;;5.28;2.17;;;;;;;;;;5057674;28;20036;-77
2022/09/17 14:56:13;;;;;;;3.72;2.00;;;;;;;;;;5060958;28;20615;-77
2022/09/17 14:58:45;;;;;;;4.88;2.45;;;;;;;;;;5057216;28;20043;-76
2022/09/17 15:01:27;;;;;;;5.28;2.08;;;;;;;;;;5060806;28;20020;-76